createdAt,value
2022-08-14T00:00:12.273Z,67.65
2022-08-14T00:03:06.318Z,68.46
2022-08-14T00:05:39.350Z,68.13
2022-08-14T00:08:16.882Z,69.18
2022-08-14T00:11:09.453Z,69.18
2022-08-14T00:13:43.240Z,69.23
2022-08-14T00:16:41.090Z,68.05
2022-08-14T00:19:19.258Z,68.20
2022-08-14T00:21:52.878Z,68.28
2022-08-14T00:24:29.172Z,68.70
2022-08-14T00:27:02.963Z,68.48
2022-08-14T00:29:40.438Z,68.47
2022-08-14T00:32:52.369Z,68.20
2022-08-14T00:35:09.252Z,68.00
2022-08-14T00:37:46.286Z,68.06
2022-08-14T00:40:33.027Z,68.04
2022-08-14T00:43:08.172Z,68.22
2022-08-14T00:45:41.288Z,67.92
2022-08-14T00:48:13.544Z,67.80
2022-08-14T00:51:09.000Z,67.95
2022-08-14T00:53:42.997Z,68.21
2022-08-14T00:56:15.523Z,68.22
2022-08-14T00:58:48.546Z,68.29
2022-08-14T01:01:21.114Z,68.33
2022-08-14T01:03:55.845Z,68.26
2022-08-14T01:06:30.175Z,68.46
2022-08-14T01:09:07.044Z,68.26
2022-08-14T01:11:41.477Z,68.13
2022-08-14T01:14:25.525Z,67.92
2022-08-14T01:17:00.869Z,67.96
2022-08-14T01:19:53.832Z,67.70
2022-08-14T01:22:27.163Z,67.44
2022-08-14T01:25:01.914Z,67.11
2022-08-14T01:27:53.440Z,67.32
2022-08-14T01:30:35.413Z,68.17
2022-08-14T01:33:12.960Z,68.39
2022-08-14T01:36:03.310Z,68.27
2022-08-14T01:38:40.235Z,67.34
2022-08-14T01:41:19.859Z,66.71
2022-08-14T01:44:01.000Z,67.47
2022-08-14T01:46:36.953Z,67.42
2022-08-14T01:49:16.607Z,68.02
2022-08-14T01:51:54.373Z,67.94
2022-08-14T01:54:38.305Z,67.99
2022-08-14T01:57:11.686Z,68.36
2022-08-14T01:59:45.166Z,68.42
2022-08-14T02:02:19.796Z,68.49
2022-08-14T02:04:56.811Z,68.23
2022-08-14T02:07:44.925Z,68.07
2022-08-14T02:10:29.082Z,68.36
2022-08-14T02:13:05.660Z,68.17
2022-08-14T02:15:41.439Z,67.85
2022-08-14T02:18:16.613Z,67.90
2022-08-14T02:20:51.368Z,67.73
2022-08-14T02:23:30.536Z,67.08
2022-08-14T02:26:24.418Z,66.79
2022-08-14T02:29:00.773Z,66.71
2022-08-14T02:31:43.488Z,66.87
2022-08-14T02:34:22.090Z,66.99
2022-08-14T02:37:06.385Z,67.39
2022-08-14T02:39:41.910Z,67.26
2022-08-14T02:42:16.208Z,67.50
2022-08-14T02:44:55.665Z,67.64
2022-08-14T02:47:28.526Z,67.73
2022-08-14T02:50:01.254Z,67.75
2022-08-14T02:52:56.091Z,67.85
2022-08-14T02:55:27.775Z,67.98
2022-08-14T02:58:03.662Z,67.90
2022-08-14T03:00:40.133Z,67.89
2022-08-14T03:03:13.559Z,68.01
2022-08-14T03:05:51.481Z,68.35
2022-08-14T03:08:33.363Z,67.99
2022-08-14T03:11:09.442Z,67.91
2022-08-14T03:13:44.256Z,68.07
2022-08-14T03:16:20.152Z,68.00
2022-08-14T03:19:00.701Z,68.11
2022-08-14T03:21:33.410Z,68.17
2022-08-14T03:24:21.702Z,68.37
2022-08-14T03:26:57.584Z,70.19
2022-08-14T03:29:30.506Z,70.06
2022-08-14T03:32:03.543Z,69.42
2022-08-14T03:34:52.571Z,68.98
2022-08-14T03:37:37.816Z,68.41
2022-08-14T03:40:19.855Z,68.12
2022-08-14T03:42:52.203Z,67.35
2022-08-14T03:45:35.034Z,67.58
2022-08-14T03:48:30.323Z,67.03
2022-08-14T03:51:04.193Z,66.78
2022-08-14T03:53:42.167Z,66.93
2022-08-14T03:56:18.024Z,66.89
2022-08-14T03:58:55.766Z,67.08
2022-08-14T04:01:39.208Z,67.30
2022-08-14T04:04:18.067Z,67.46
2022-08-14T04:06:51.800Z,67.76
2022-08-14T04:09:26.663Z,67.80
2022-08-14T04:12:00.063Z,68.02
2022-08-14T04:14:37.299Z,68.05
2022-08-14T04:17:11.358Z,68.05
2022-08-14T04:19:46.372Z,68.27
2022-08-14T04:22:21.985Z,68.23
2022-08-14T04:24:54.784Z,68.24
2022-08-14T04:27:28.381Z,68.52
2022-08-14T04:30:02.849Z,68.51
2022-08-14T04:33:02.735Z,68.79
2022-08-14T04:35:50.727Z,69.04
2022-08-14T04:38:41.959Z,69.35
2022-08-14T04:41:31.766Z,69.56
2022-08-14T04:44:05.013Z,69.56
2022-08-14T04:46:56.638Z,69.89
2022-08-14T04:49:30.358Z,70.00
2022-08-14T04:52:15.245Z,70.28
2022-08-14T04:54:51.056Z,70.70
2022-08-14T04:57:23.091Z,70.93
2022-08-14T04:59:55.335Z,70.92
2022-08-14T05:02:28.542Z,71.05
2022-08-14T05:05:01.286Z,71.21
2022-08-14T05:07:46.257Z,70.47
2022-08-14T05:10:32.158Z,70.63
2022-08-14T05:13:12.938Z,70.42
2022-08-14T05:15:48.988Z,70.37
2022-08-14T05:18:52.918Z,70.03
2022-08-14T05:22:00.484Z,69.82
2022-08-14T05:24:17.783Z,70.16
2022-08-14T05:26:51.044Z,70.18
2022-08-14T05:29:23.906Z,69.78
2022-08-14T05:31:58.251Z,69.36
2022-08-14T05:34:31.946Z,69.94
2022-08-14T05:37:06.841Z,69.60
2022-08-14T05:39:40.892Z,69.41
2022-08-14T05:42:22.032Z,69.42
2022-08-14T05:44:59.582Z,69.19
2022-08-14T05:47:39.082Z,69.49
2022-08-14T05:50:17.238Z,69.64
2022-08-14T05:52:53.092Z,68.95
2022-08-14T05:55:26.844Z,69.79
2022-08-14T05:58:03.321Z,69.93
2022-08-14T06:00:39.782Z,68.96
2022-08-14T06:03:14.924Z,68.74
2022-08-14T06:05:48.567Z,69.27
2022-08-14T06:08:41.036Z,68.73
2022-08-14T06:11:20.051Z,67.50
2022-08-14T06:13:56.632Z,66.69
2022-08-14T06:16:29.022Z,66.10
2022-08-14T06:19:06.671Z,65.61
2022-08-14T06:21:43.607Z,65.27
2022-08-14T06:24:18.317Z,65.36
2022-08-14T06:26:56.930Z,65.22
2022-08-14T06:29:38.010Z,64.53
2022-08-14T06:32:38.664Z,64.69
2022-08-14T06:35:12.160Z,64.73
2022-08-14T06:37:48.915Z,64.18
2022-08-14T06:40:27.786Z,65.80
2022-08-14T06:43:03.402Z,65.83
2022-08-14T06:45:38.742Z,65.67
2022-08-14T06:48:18.009Z,65.79
2022-08-14T06:50:55.042Z,65.47
2022-08-14T06:53:27.649Z,65.25
2022-08-14T06:56:02.435Z,64.66
2022-08-14T06:58:35.808Z,64.58
2022-08-14T07:01:27.596Z,64.38
2022-08-14T07:04:23.853Z,63.87
2022-08-14T07:06:59.135Z,65.30
2022-08-14T07:09:43.897Z,65.79
2022-08-14T07:12:54.186Z,64.68
2022-08-14T07:15:16.277Z,65.07
2022-08-14T07:17:54.045Z,65.17
2022-08-14T07:20:30.595Z,65.44
2022-08-14T07:23:09.281Z,64.50
2022-08-14T07:25:53.540Z,64.58
2022-08-14T07:28:28.030Z,64.73
2022-08-14T07:31:05.073Z,64.55
2022-08-14T07:33:41.937Z,63.87
2022-08-14T07:36:27.651Z,63.50
2022-08-14T07:39:12.214Z,64.21
2022-08-14T07:41:45.449Z,65.11
2022-08-14T07:44:32.162Z,64.80
2022-08-14T07:47:07.897Z,64.58
2022-08-14T07:49:41.252Z,63.36
2022-08-14T07:52:15.541Z,62.29
2022-08-14T07:54:54.842Z,61.65
2022-08-14T07:57:28.270Z,61.06
2022-08-14T08:00:01.415Z,60.62
2022-08-14T08:02:46.339Z,62.10
2022-08-14T08:05:20.331Z,62.75
2022-08-14T08:07:54.702Z,60.98
2022-08-14T08:11:01.675Z,60.26
2022-08-14T08:13:28.638Z,59.73
2022-08-14T08:16:03.477Z,59.50
2022-08-14T08:18:36.302Z,59.17
2022-08-14T08:21:09.484Z,58.57
2022-08-14T08:23:51.382Z,58.61
2022-08-14T08:26:29.780Z,59.39
2022-08-14T08:29:02.179Z,58.83
2022-08-14T08:31:36.639Z,58.07
2022-08-14T08:34:14.269Z,57.21
2022-08-14T08:36:50.689Z,56.84
2022-08-14T08:39:23.258Z,57.73
2022-08-14T08:41:55.857Z,57.83
2022-08-14T08:44:34.371Z,58.42
2022-08-14T08:47:08.123Z,58.21
2022-08-14T08:49:52.591Z,56.90
2022-08-14T08:52:32.355Z,56.39
2022-08-14T08:55:05.267Z,55.98
2022-08-14T08:57:38.980Z,56.65
2022-08-14T09:00:24.979Z,57.07
2022-08-14T09:03:03.311Z,56.25
2022-08-14T09:05:38.467Z,56.12
2022-08-14T09:08:26.561Z,55.89
2022-08-14T09:11:19.000Z,55.65
2022-08-14T09:13:54.985Z,54.97
2022-08-14T09:16:27.805Z,54.80
2022-08-14T09:19:00.495Z,55.24
2022-08-14T09:21:34.794Z,55.24
2022-08-14T09:24:28.588Z,54.00
2022-08-14T09:27:00.982Z,53.26
2022-08-14T09:29:33.256Z,53.01
2022-08-14T09:32:10.127Z,52.70
2022-08-14T09:35:14.219Z,52.91
2022-08-14T09:37:56.403Z,51.90
2022-08-14T09:40:40.767Z,52.06
2022-08-14T09:43:26.087Z,50.88
2022-08-14T09:46:01.097Z,50.93
2022-08-14T09:48:35.504Z,51.67
2022-08-14T09:51:25.485Z,51.09
2022-08-14T09:54:17.692Z,50.64
2022-08-14T09:56:57.224Z,51.37
2022-08-14T09:59:50.442Z,50.67
2022-08-14T10:02:25.274Z,50.39
2022-08-14T10:05:08.694Z,50.12
2022-08-14T10:07:53.873Z,49.88
2022-08-14T10:10:34.998Z,50.00
2022-08-14T10:13:21.395Z,49.56
2022-08-14T10:16:01.726Z,49.48
2022-08-14T10:18:34.801Z,49.90
2022-08-14T10:21:09.839Z,49.91
2022-08-14T10:23:49.891Z,50.12
2022-08-14T10:26:28.181Z,49.99
2022-08-14T10:29:19.291Z,50.05
2022-08-14T10:32:00.989Z,50.00
2022-08-14T10:34:40.854Z,49.36
2022-08-14T10:37:16.933Z,49.62
2022-08-14T10:40:10.584Z,49.55
2022-08-14T10:42:47.251Z,49.44
2022-08-14T10:45:25.709Z,49.33
2022-08-14T10:48:08.081Z,49.47
2022-08-14T10:50:50.481Z,49.49
2022-08-14T10:53:39.903Z,49.51
2022-08-14T10:56:21.529Z,49.66
2022-08-14T10:59:08.828Z,49.81
2022-08-14T11:01:43.134Z,49.64
2022-08-14T11:04:30.833Z,50.20
2022-08-14T11:07:05.875Z,49.70
2022-08-14T11:09:41.765Z,49.75
2022-08-14T11:12:39.982Z,50.05
2022-08-14T11:15:07.776Z,50.17
2022-08-14T11:17:40.339Z,50.04
2022-08-14T11:20:20.351Z,50.21
2022-08-14T11:22:58.943Z,50.56
2022-08-14T11:25:36.846Z,49.84
2022-08-14T11:28:19.178Z,49.83
2022-08-14T11:30:54.621Z,50.18
2022-08-14T11:33:31.196Z,50.33
2022-08-14T11:36:18.064Z,50.10
2022-08-14T11:38:51.503Z,50.70
2022-08-14T11:41:27.281Z,50.53
2022-08-14T11:43:59.907Z,50.40
2022-08-14T11:46:37.715Z,49.97
2022-08-14T11:49:12.352Z,49.39
2022-08-14T11:51:55.751Z,49.15
2022-08-14T11:54:35.566Z,48.69
2022-08-14T11:57:14.553Z,48.85
2022-08-14T12:00:01.364Z,48.94
2022-08-14T12:03:02.555Z,48.34
2022-08-14T12:05:40.238Z,47.70
2022-08-14T12:08:13.481Z,47.89
2022-08-14T12:10:46.685Z,48.34
2022-08-14T12:13:22.362Z,48.56
2022-08-14T12:16:06.398Z,48.40
2022-08-14T12:18:45.549Z,48.50
2022-08-14T12:21:19.435Z,48.51
2022-08-14T12:24:04.239Z,48.41
2022-08-14T12:26:40.499Z,48.39
2022-08-14T12:29:16.955Z,48.22
2022-08-14T12:32:12.579Z,48.39
2022-08-14T12:34:53.739Z,48.49
2022-08-14T12:37:33.483Z,49.46
2022-08-14T12:40:20.798Z,53.26
2022-08-14T12:42:56.685Z,56.17
2022-08-14T12:45:35.402Z,57.11
2022-08-14T12:48:21.160Z,57.62
2022-08-14T12:51:00.546Z,57.65
2022-08-14T12:53:39.165Z,58.43
2022-08-14T12:56:22.486Z,59.09
2022-08-14T12:59:06.069Z,59.08
2022-08-14T13:02:00.026Z,59.14
2022-08-14T13:04:35.415Z,58.90
2022-08-14T13:07:08.577Z,57.83
2022-08-14T13:09:41.110Z,56.64
2022-08-14T13:12:33.367Z,54.56
2022-08-14T13:15:09.576Z,53.99
2022-08-14T13:18:29.870Z,53.94
2022-08-14T13:25:55.967Z,54.28
2022-08-14T13:28:32.978Z,54.40
2022-08-14T13:31:11.802Z,54.20
2022-08-14T13:33:43.987Z,54.57
2022-08-14T13:36:24.030Z,55.13
2022-08-14T13:39:16.531Z,54.75
2022-08-14T13:46:00.317Z,55.30
2022-08-14T13:52:51.652Z,54.74
2022-08-14T13:56:14.466Z,54.55
2022-08-14T13:59:20.523Z,54.66
2022-08-14T14:02:13.852Z,54.25
2022-08-14T14:05:07.634Z,54.08
2022-08-14T14:07:48.540Z,53.53
2022-08-14T14:10:28.721Z,54.02
2022-08-14T14:13:02.921Z,53.79
2022-08-14T14:15:48.580Z,53.01
2022-08-14T14:18:34.686Z,52.54
2022-08-14T14:21:19.412Z,52.30
2022-08-14T14:23:55.575Z,51.86
2022-08-14T14:26:55.439Z,51.40
2022-08-14T14:29:37.512Z,51.22
2022-08-14T14:32:21.598Z,51.23
2022-08-14T14:34:56.530Z,52.13
2022-08-14T14:37:31.175Z,51.81
2022-08-14T14:40:53.055Z,51.73
2022-08-14T14:43:05.508Z,51.93
2022-08-14T14:45:41.428Z,51.20
2022-08-14T14:48:16.715Z,50.99
2022-08-14T14:53:52.543Z,52.18
2022-08-14T14:56:49.750Z,52.54
2022-08-14T14:59:21.872Z,52.71
2022-08-14T15:02:07.825Z,52.51
2022-08-14T15:04:46.434Z,52.41
2022-08-14T15:07:20.219Z,52.60
2022-08-14T15:09:54.488Z,52.75
2022-08-14T15:12:55.198Z,52.91
2022-08-14T15:15:22.885Z,52.79
2022-08-14T15:17:55.337Z,52.98
2022-08-14T15:20:30.613Z,51.96
2022-08-14T15:23:43.669Z,52.03
2022-08-14T15:26:24.189Z,51.94
2022-08-14T15:30:23.749Z,51.89
2022-08-14T15:34:43.498Z,51.73
2022-08-14T15:38:00.681Z,51.84
2022-08-14T15:40:41.390Z,52.34
2022-08-14T15:43:14.757Z,51.46
2022-08-14T15:45:48.565Z,51.41
2022-08-14T15:48:22.326Z,51.07
2022-08-14T15:50:54.846Z,52.16
2022-08-14T15:53:31.573Z,52.07
2022-08-14T15:56:06.168Z,51.48
2022-08-14T15:58:41.992Z,51.28
2022-08-14T16:01:43.570Z,50.51
2022-08-14T16:04:17.457Z,50.51
2022-08-14T16:06:54.570Z,50.62
2022-08-14T16:09:27.605Z,50.57
2022-08-14T16:12:00.490Z,50.16
2022-08-14T16:14:34.338Z,50.46
2022-08-14T16:17:08.171Z,51.21
2022-08-14T16:19:47.771Z,50.18
2022-08-14T16:22:58.693Z,49.93
2022-08-14T16:25:18.237Z,50.67
2022-08-14T16:27:51.799Z,50.62
2022-08-14T16:30:27.860Z,50.63
2022-08-14T16:33:02.083Z,50.80
2022-08-14T16:35:42.740Z,51.53
2022-08-14T16:38:46.320Z,51.59
2022-08-14T16:41:30.022Z,51.30
2022-08-14T16:44:05.580Z,51.29
2022-08-14T16:46:47.910Z,51.86
2022-08-14T16:49:20.722Z,51.47
2022-08-14T16:51:55.524Z,51.42
2022-08-14T16:54:35.043Z,51.15
2022-08-14T16:57:22.566Z,51.69
2022-08-14T16:59:57.709Z,51.93
2022-08-14T17:02:39.865Z,52.17
2022-08-14T17:05:24.895Z,52.26
2022-08-14T17:08:33.474Z,52.12
2022-08-14T17:11:10.848Z,52.29
2022-08-14T17:14:00.433Z,51.91
2022-08-14T17:16:37.104Z,52.22
2022-08-14T17:19:14.183Z,52.32
2022-08-14T17:21:52.351Z,52.54
2022-08-14T17:24:57.089Z,52.70
2022-08-14T17:27:18.577Z,52.82
2022-08-14T17:29:57.690Z,52.78
2022-08-14T17:32:57.599Z,52.85
2022-08-14T17:35:58.159Z,52.86
2022-08-14T17:38:33.596Z,53.06
2022-08-14T17:41:27.085Z,53.29
2022-08-14T17:44:22.044Z,53.14
2022-08-14T17:47:10.133Z,53.21
2022-08-14T17:49:51.721Z,53.28
2022-08-14T17:52:35.894Z,53.31
2022-08-14T17:56:00.891Z,53.51
2022-08-14T17:58:16.553Z,53.43
2022-08-14T18:00:57.439Z,53.88
2022-08-14T18:03:50.870Z,54.05
2022-08-14T18:06:38.279Z,53.89
2022-08-14T18:09:25.337Z,53.72
2022-08-14T18:12:03.820Z,54.02
2022-08-14T18:14:48.822Z,54.10
2022-08-14T18:17:24.798Z,54.15
2022-08-14T18:20:01.393Z,54.31
2022-08-14T18:22:49.656Z,54.88
2022-08-14T18:25:22.935Z,55.40
2022-08-14T18:27:57.243Z,55.68
2022-08-14T18:30:33.570Z,56.51
2022-08-14T18:33:23.850Z,56.97
2022-08-14T18:35:58.721Z,56.99
2022-08-14T18:38:45.871Z,57.04
2022-08-14T18:41:36.065Z,56.70
2022-08-14T18:44:10.847Z,57.01
2022-08-14T18:47:18.665Z,56.71
2022-08-14T18:50:27.170Z,57.07
2022-08-14T18:53:07.614Z,57.14
2022-08-14T18:55:55.497Z,57.89
2022-08-14T18:58:33.945Z,58.15
2022-08-14T19:01:06.867Z,58.12
2022-08-14T19:03:56.285Z,58.36
2022-08-14T19:06:56.172Z,59.00
2022-08-14T19:09:58.042Z,59.06
2022-08-14T19:13:11.546Z,59.66
2022-08-14T19:15:56.587Z,59.82
2022-08-14T19:18:32.534Z,60.23
2022-08-14T19:21:26.802Z,60.11
2022-08-14T19:24:29.919Z,59.79
2022-08-14T19:30:23.435Z,60.32
2022-08-14T19:33:03.756Z,60.36
2022-08-14T19:36:00.327Z,60.51
2022-08-14T19:38:57.207Z,60.65
2022-08-14T19:41:34.076Z,61.06
2022-08-14T19:44:12.853Z,61.59
2022-08-14T19:47:01.151Z,61.81
2022-08-14T19:50:24.379Z,61.95
2022-08-14T19:52:39.498Z,61.96
2022-08-14T19:55:20.285Z,61.69
2022-08-14T19:57:58.887Z,61.88
2022-08-14T20:00:31.759Z,62.02
2022-08-14T20:03:10.815Z,62.35
2022-08-14T20:05:45.837Z,62.29
2022-08-14T20:10:58.231Z,62.35
2022-08-14T20:12:00.830Z,62.40
2022-08-14T20:14:27.975Z,62.51
2022-08-14T20:17:06.806Z,62.96
2022-08-14T20:19:41.596Z,62.99
2022-08-14T20:22:36.588Z,62.80
2022-08-14T20:25:20.410Z,63.00
2022-08-14T20:27:58.622Z,62.87
2022-08-14T20:30:35.046Z,63.00
2022-08-14T20:33:11.760Z,62.84
2022-08-14T20:35:52.336Z,62.97
2022-08-14T20:38:32.360Z,63.27
2022-08-14T20:41:12.449Z,63.42
2022-08-14T20:44:06.577Z,63.30
2022-08-14T20:46:42.338Z,63.47
2022-08-14T20:49:19.297Z,63.49
2022-08-14T20:52:00.403Z,63.72
2022-08-14T20:54:50.505Z,64.01
2022-08-14T20:57:24.110Z,63.88
2022-08-14T20:59:57.245Z,63.91
2022-08-14T21:02:50.716Z,63.91
2022-08-14T21:05:34.073Z,63.92
2022-08-14T21:08:22.163Z,63.87
2022-08-14T21:10:58.850Z,63.66
2022-08-14T21:14:20.622Z,63.58
2022-08-14T21:16:36.758Z,63.14
2022-08-14T21:19:10.146Z,62.34
2022-08-14T21:21:54.837Z,62.37
2022-08-14T21:24:40.155Z,62.31
2022-08-14T21:27:22.008Z,61.63
2022-08-14T21:29:56.560Z,61.62
2022-08-14T21:32:47.291Z,61.87
2022-08-14T21:35:30.419Z,62.22
2022-08-14T21:38:02.886Z,62.68
2022-08-14T21:40:42.445Z,63.07
2022-08-14T21:43:21.182Z,63.48
2022-08-14T21:45:58.768Z,63.16
2022-08-14T21:48:34.021Z,62.71
2022-08-14T21:51:53.674Z,63.17
2022-08-14T21:54:01.312Z,63.98
2022-08-14T21:56:40.853Z,63.70
2022-08-14T21:59:34.126Z,63.44
2022-08-14T22:02:09.425Z,64.09
2022-08-14T22:05:03.558Z,64.80
2022-08-14T22:07:36.903Z,65.28
2022-08-14T22:10:14.220Z,65.64
2022-08-14T22:13:00.464Z,65.79
2022-08-14T22:15:35.539Z,65.67
2022-08-14T22:18:20.664Z,65.91
2022-08-14T22:20:56.622Z,65.73
2022-08-14T22:23:29.936Z,66.10
2022-08-14T22:26:05.081Z,66.05
2022-08-14T22:28:37.343Z,66.64
2022-08-14T22:31:22.230Z,66.64
2022-08-14T22:33:58.019Z,66.67
2022-08-14T22:36:50.484Z,67.12
2022-08-14T22:40:15.339Z,67.40
2022-08-14T22:42:19.382Z,67.60
2022-08-14T22:44:56.693Z,67.98
2022-08-14T22:47:40.278Z,67.93
2022-08-14T22:50:32.127Z,67.78
2022-08-14T22:53:07.532Z,67.69
2022-08-14T22:55:42.400Z,67.60
2022-08-14T22:58:16.999Z,67.54
2022-08-14T23:00:49.888Z,67.25
2022-08-14T23:03:23.472Z,67.36
2022-08-14T23:05:55.737Z,67.45
2022-08-14T23:08:58.607Z,67.36
2022-08-14T23:11:20.349Z,67.37
2022-08-14T23:13:54.861Z,66.95
2022-08-14T23:16:27.189Z,66.76
2022-08-14T23:18:59.749Z,67.14
2022-08-14T23:21:31.793Z,67.26
2022-08-14T23:24:06.403Z,67.35
2022-08-14T23:26:47.792Z,67.75
2022-08-14T23:29:24.913Z,67.76
2022-08-14T23:31:59.123Z,67.78
2022-08-14T23:34:31.645Z,68.08
2022-08-14T23:37:04.723Z,68.10
2022-08-14T23:39:39.097Z,67.90
2022-08-14T23:42:12.620Z,67.64
2022-08-14T23:44:50.349Z,67.46
2022-08-14T23:47:26.091Z,67.33
2022-08-14T23:50:04.005Z,67.53
2022-08-14T23:52:55.609Z,67.47
2022-08-14T23:55:34.970Z,67.93
2022-08-14T23:58:07.813Z,67.98
